Trenton, Illinois
Current Conditions -  °F | °C
As of 3:58 PM on Tuesday 21 Oct 2014 (Local Time) from KBLV Reporting Station
Clear Clear  
Wind Chill: 67°   Ceiling: Unl
Heat Index: 67°   Visibility: 10mi
Dew Point: 44°   Wind: 9mph
Humidity: 44%   Direction: 40°NE
Pressure: 30.1"   Gusts: NA
Location:  38.61°N, 89.68°W
Report Text: KBLV 212058Z AUTO 04008KT 10SM CLR 20/07 A3010 RMK AO2 SLP196 T01960069 55005
Loading
Personal Weather Stations






























Interactive Weather Map
Tropical Storm Tracking
New forecast layout! Learn more

10-Day Weather Forecast

Advertisements
Track Severe Weather on mobile